Time;durP1;ratioP1;P1;durP2;ratioP2;P2;SDS_P1;SDS_P2;PMS_P1;PMS_P2;Temp;Humidity;BMP_temperature;BMP_pressure;BME280_temperature;BME280_humidity;BME280_pressure;Samples;Min_cycle;Max_cycle;Signal;HPM_P1;HPM_P2
2021/09/19 00:01:11;;;;;;;5.22;3.53;;;;;;;22.95;67.13;100451.38;5114851;28;20050;-67
2021/09/19 00:03:56;;;;;;;6.13;4.13;;;;;;;22.93;67.03;100442.66;5118291;28;20042;-67
2021/09/19 00:06:41;;;;;;;7.30;4.90;;;;;;;22.90;67.21;100438.75;5117241;28;20066;-68
2021/09/19 00:15:32;;;;;;;4.72;2.47;;;;;;;23.18;66.10;100448.06;5114070;28;20046;-68
2021/09/19 00:18:17;;;;;;;4.75;2.30;;;;;;;23.27;65.75;100446.38;5112074;28;20122;-68
2021/09/19 00:21:02;;;;;;;4.13;3.28;;;;;;;23.24;65.63;100432.56;5117312;28;20054;-67
2021/09/19 00:23:47;;;;;;;6.47;3.58;;;;;;;23.19;66.00;100444.09;5115483;28;20521;-67
2021/09/19 00:26:32;;;;;;;6.88;3.70;;;;;;;23.19;65.86;100444.09;5111608;28;20518;-67
2021/09/19 00:29:17;;;;;;;4.32;3.17;;;;;;;23.29;65.45;100437.66;5116225;28;20536;-66
2021/09/19 00:32:02;;;;;;;6.50;3.63;;;;;;;23.28;65.16;100431.31;5115254;28;20062;-66
2021/09/19 00:34:47;;;;;;;5.35;4.07;;;;;;;23.27;65.11;100435.28;5113460;28;20042;-67
2021/09/19 00:37:32;;;;;;;7.30;3.30;;;;;;;23.17;65.01;100440.91;5115560;28;20039;-66
2021/09/19 00:40:17;;;;;;;9.30;5.18;;;;;;;23.15;65.01;100446.09;5114636;28;20046;-67
2021/09/19 00:43:02;;;;;;;6.80;4.57;;;;;;;22.83;66.59;100446.28;5113422;28;20051;-67
2021/09/19 00:45:47;;;;;;;10.07;5.95;;;;;;;22.85;65.75;100444.72;5117631;28;20064;-67
2021/09/19 00:48:32;;;;;;;9.30;5.30;;;;;;;22.72;66.74;100446.34;5115412;28;20510;-67
2021/09/19 00:51:17;;;;;;;10.80;4.88;;;;;;;22.74;66.46;100441.19;5112411;28;20518;-67
2021/09/19 00:54:04;;;;;;;9.50;5.85;;;;;;;22.72;66.53;100432.50;5117066;28;20038;-67
2021/09/19 00:56:55;;;;;;;13.82;7.07;;;;;;;22.52;67.43;100434.94;5115840;28;20059;-68
2021/09/19 00:59:41;;;;;;;8.32;5.88;;;;;;;22.47;68.34;100431.78;5112526;28;20038;-68
2021/09/19 01:05:31;;;;;;;11.85;7.30;;;;;;;22.38;68.32;100434.22;5114579;28;20043;-67
2021/09/19 01:08:16;;;;;;;14.80;7.68;;;;;;;22.30;68.78;100432.66;5113136;28;20058;-66
2021/09/19 01:11:01;;;;;;;9.50;6.45;;;;;;;22.34;68.81;100431.47;5115478;28;20038;-67
2021/09/19 01:13:47;;;;;;;9.80;5.10;;;;;;;22.36;68.91;100428.28;5114135;28;20058;-66
2021/09/19 01:16:32;;;;;;;6.03;4.68;;;;;;;22.57;68.03;100420.66;5112747;28;20042;-67
2021/09/19 01:19:21;;;;;;;12.60;6.70;;;;;;;22.72;67.28;100417.84;5114971;28;20035;-66
2021/09/19 01:22:06;;;;;;;8.23;6.32;;;;;;;22.63;67.50;100411.91;5113968;28;20051;-69
2021/09/19 01:25:09;;;;;;;13.02;7.53;;;;;;;22.52;67.93;100411.97;5112716;28;21402;-68
2021/09/19 01:28:13;;;;;;;9.38;6.53;;;;;;;22.36;68.86;100419.97;5115457;28;20093;-69
2021/09/19 01:30:57;;;;;;;9.98;7.35;;;;;;;22.21;69.45;100416.47;5110596;28;20035;-69
2021/09/19 01:33:43;;;;;;;9.00;6.55;;;;;;;22.00;70.31;100409.00;5111637;28;20042;-67
2021/09/19 01:36:32;;;;;;;9.63;6.70;;;;;;;22.06;70.28;100410.19;5114179;28;20047;-69
2021/09/19 01:39:17;;;;;;;10.45;7.63;;;;;;;21.91;71.20;100402.28;5113662;28;20509;-69
2021/09/19 01:42:02;;;;;;;11.50;7.63;;;;;;;21.89;71.48;100399.91;5115111;28;20054;-69
2021/09/19 01:45:26;;;;;;;9.30;6.97;;;;;;;21.84;71.40;100392.00;5111294;28;20043;-69
2021/09/19 01:48:34;;;;;;;14.82;8.95;;;;;;;21.82;71.68;100402.69;5111135;28;20035;-69
2021/09/19 01:51:18;;;;;;;10.75;8.38;;;;;;;21.77;72.18;100394.81;5114742;28;20403;-69
2021/09/19 01:54:03;;;;;;;8.98;7.75;;;;;;;21.75;72.33;100380.56;5110576;28;20050;-69
2021/09/19 01:56:48;;;;;;;12.95;8.13;;;;;;;21.76;72.45;100382.94;5115458;28;20043;-69
2021/09/19 01:59:54;;;;;;;12.73;8.68;;;;;;;21.78;71.79;100382.56;5111640;28;20043;-67
2021/09/19 02:02:40;;;;;;;10.57;8.07;;;;;;;21.70;72.08;100383.72;5117444;28;20035;-67
2021/09/19 02:05:26;;;;;;;8.70;7.13;;;;;;;21.89;71.76;100393.59;5114224;28;20050;-66
2021/09/19 02:08:11;;;;;;;14.98;9.95;;;;;;;21.97;71.13;100387.66;5112390;28;20047;-65
2021/09/19 02:10:56;;;;;;;9.20;6.88;;;;;;;21.85;71.70;100385.28;5117397;28;20046;-65
2021/09/19 02:13:42;;;;;;;11.38;6.60;;;;;;;21.99;70.68;100379.72;5113518;28;20547;-68
2021/09/19 02:16:46;;;;;;;10.73;7.57;;;;;;;22.21;69.89;100374.91;5112236;28;20040;-66
2021/09/19 02:19:31;;;;;;;12.55;7.57;;;;;;;22.27;69.46;100373.31;5115797;28;20042;-65
2021/09/19 02:22:16;;;;;;;13.95;7.05;;;;;;;22.35;69.11;100357.44;5114409;28;20054;-66
2021/09/19 02:25:00;;;;;;;;;;;;;;;22.38;68.50;100362.97;5113335;28;20062;-66
2021/09/19 02:27:45;;;;;;;8.15;6.05;;;;;;;22.42;68.52;100346.31;5114066;28;19916;-66
2021/09/19 02:30:30;;;;;;;9.13;6.80;;;;;;;22.39;68.22;100347.13;5113709;28;20403;-66
2021/09/19 02:33:14;;;;;;;9.40;6.93;;;;;;;22.49;68.04;100341.53;5109929;28;20526;-66
2021/09/19 02:36:18;;;;;;;8.63;6.38;;;;;;;22.48;67.87;100328.06;5110329;28;20054;-68
2021/09/19 02:39:23;;;;;;;7.35;6.03;;;;;;;22.53;67.85;100330.41;5111531;28;20038;-68
2021/09/19 02:42:08;;;;;;;16.95;7.10;;;;;;;22.48;67.49;100320.53;5115545;27;20054;-68
2021/09/19 02:44:53;;;;;;;9.52;6.07;;;;;;;22.39;67.19;100324.97;5116145;28;20043;-68
2021/09/19 02:47:39;;;;;;;12.23;6.60;;;;;;;22.45;67.01;100326.88;5117295;28;20414;-66
2021/09/19 02:50:24;;;;;;;9.55;6.38;;;;;;;22.47;66.71;100323.72;5121690;28;20494;-66
2021/09/19 02:56:13;;;;;;;12.43;7.20;;;;;;;22.18;67.04;100336.94;5115780;28;20055;-66
2021/09/19 02:59:18;;;;;;;9.18;6.20;;;;;;;22.12;67.39;100344.88;5114965;28;20042;-66
2021/09/19 03:02:02;;;;;;;11.38;5.93;;;;;;;22.19;67.65;100344.06;5118143;28;20054;-66
2021/09/19 03:04:47;;;;;;;7.93;6.03;;;;;;;22.28;67.07;100341.63;5113720;28;20054;-67
2021/09/19 03:07:32;;;;;;;18.63;7.18;;;;;;;22.15;66.97;100349.59;5118122;28;20422;-66
2021/09/19 03:10:17;;;;;;;8.65;5.70;;;;;;;21.98;68.03;100344.94;5116799;28;20502;-66
2021/09/19 03:13:21;;;;;;;11.60;6.65;;;;;;;21.85;68.45;100346.53;5115553;28;20058;-66
2021/09/19 03:16:06;;;;;;;7.05;5.80;;;;;;;21.81;68.69;100344.97;5119179;28;20039;-66
2021/09/19 03:22:13;;;;;;;12.10;7.15;;;;;;;21.61;69.91;100336.31;5117613;28;20062;-66
2021/09/19 03:24:59;;;;;;;13.18;7.53;;;;;;;21.64;69.99;100329.97;5116468;28;20071;-66
2021/09/19 03:28:02;;;;;;;12.63;7.50;;;;;;;21.55;70.45;100324.06;5115046;28;20042;-66
2021/09/19 03:30:47;;;;;;;20.90;8.73;;;;;;;21.55;70.58;100322.09;5118709;28;20035;-66
2021/09/19 03:34:09;;;;;;;10.93;7.97;;;;;;;21.65;70.56;100324.03;5112771;28;20047;-66
2021/09/19 03:36:54;;;;;;;11.48;8.55;;;;;;;21.69;70.27;100324.03;5117238;28;20403;-68
2021/09/19 03:39:40;;;;;;;11.80;8.65;;;;;;;21.62;70.21;100324.06;5120691;28;20054;-67
2021/09/19 03:42:25;;;;;;;12.52;8.02;;;;;;;21.70;70.12;100320.88;5120456;28;20094;-66
2021/09/19 03:45:11;;;;;;;8.27;6.70;;;;;;;21.91;69.27;100327.53;5116455;28;20042;-66
2021/09/19 03:48:02;;;;;;;11.00;6.97;;;;;;;22.13;67.77;100329.84;5114920;28;20046;-67
2021/09/19 03:50:47;;;;;;;8.48;6.60;;;;;;;21.82;68.63;100330.72;5114036;28;20058;-67
2021/09/19 03:53:32;;;;;;;8.77;6.05;;;;;;;21.75;69.28;100341.81;5116531;28;20411;-67
2021/09/19 03:56:17;;;;;;;10.57;6.97;;;;;;;21.70;69.13;100331.16;5115222;28;20046;-67
2021/09/19 03:59:02;;;;;;;10.48;7.63;;;;;;;21.67;69.36;100329.19;5113785;28;20055;-68
2021/09/19 04:01:47;;;;;;;11.30;6.88;;;;;;;21.88;68.94;100323.59;5118604;28;20039;-68
2021/09/19 04:04:33;;;;;;;14.93;6.65;;;;;;;21.99;68.25;100327.09;5119066;28;20419;-68
2021/09/19 04:07:19;;;;;;;8.73;5.43;;;;;;;22.05;68.20;100325.50;5107788;28;20042;-69
2021/09/19 04:10:22;;;;;;;9.02;6.78;;;;;;;22.06;67.65;100324.31;5121203;28;20510;-67
2021/09/19 04:13:07;;;;;;;12.18;6.47;;;;;;;22.19;67.10;100316.38;5115447;28;20043;-67
2021/09/19 04:15:52;;;;;;;11.63;6.38;;;;;;;22.17;67.04;100316.75;5119960;28;20493;-67
2021/09/19 04:18:37;;;;;;;8.40;5.97;;;;;;;22.17;67.02;100318.75;5113114;28;20431;-67
2021/09/19 04:21:21;;;;;;;10.77;6.22;;;;;;;22.20;66.44;100314.38;5114573;28;20054;-67
2021/09/19 04:24:06;;;;;;;10.20;6.95;;;;;;;21.89;67.50;100325.16;5109593;28;20514;-68
2021/09/19 04:26:52;;;;;;;7.65;5.85;;;;;;;22.02;67.48;100318.03;5117915;28;20058;-67
2021/09/19 04:29:36;;;;;;;14.63;5.55;;;;;;;22.08;67.08;100313.66;5114039;28;20439;-67
2021/09/19 04:32:22;;;;;;;8.90;5.38;;;;;;;22.13;67.14;100304.91;5109662;28;20055;-67
2021/09/19 04:35:07;;;;;;;11.70;5.75;;;;;;;22.15;66.75;100304.50;5117886;28;20039;-67
2021/09/19 04:37:52;;;;;;;9.02;6.72;;;;;;;22.14;66.21;100325.88;5117560;28;20042;-67
2021/09/19 04:40:38;;;;;;;9.40;6.45;;;;;;;21.82;67.81;100330.72;5102428;28;20411;-67
2021/09/19 04:43:23;;;;;;;11.25;6.88;;;;;;;21.58;68.53;100320.53;5114088;28;20047;-68
2021/09/19 04:46:08;;;;;;;9.45;7.15;;;;;;;21.68;68.40;100328.00;5113231;28;20047;-67
2021/09/19 04:48:55;;;;;;;10.55;7.35;;;;;;;21.48;68.97;100333.19;5113211;28;20058;-66
2021/09/19 04:51:40;;;;;;;9.55;7.25;;;;;;;21.31;69.62;100332.03;5115943;28;20038;-67
2021/09/19 04:54:26;;;;;;;10.93;6.50;;;;;;;21.25;69.99;100332.81;5119200;28;20054;-67
2021/09/19 04:57:11;;;;;;;9.40;7.18;;;;;;;21.26;70.03;100337.16;5110974;28;20076;-67
2021/09/19 05:03:00;;;;;;;12.18;8.00;;;;;;;21.40;69.45;100339.13;5113387;28;20043;-73
2021/09/19 05:05:45;;;;;;;9.70;7.07;;;;;;;21.38;69.41;100334.00;5113590;28;20054;-69
2021/09/19 05:08:29;;;;;;;53.20;13.13;;;;;;;21.49;69.17;100331.19;5115555;28;20050;-70
2021/09/19 05:11:14;;;;;;;27.50;9.80;;;;;;;21.64;68.85;100343.81;5120215;28;20039;-70
2021/09/19 05:14:00;;;;;;;15.27;7.88;;;;;;;21.65;68.55;100340.66;5120378;28;20066;-70
2021/09/19 05:16:45;;;;;;;15.50;7.82;;;;;;;21.72;67.81;100342.63;5120245;28;20062;-71
2021/09/19 05:19:30;;;;;;;13.77;7.47;;;;;;;21.74;67.35;100334.69;5120219;28;20050;-71
2021/09/19 05:22:15;;;;;;;11.93;7.03;;;;;;;21.84;67.49;100341.41;5119951;28;20129;-71
2021/09/19 05:25:00;;;;;;;10.23;6.45;;;;;;;21.84;67.41;100339.41;5119696;28;20055;-71
2021/09/19 05:27:45;;;;;;;12.18;6.05;;;;;;;21.80;67.70;100344.16;5117027;28;20047;-71
2021/09/19 05:30:30;;;;;;;10.52;6.93;;;;;;;21.74;67.54;100343.78;5119848;28;20047;-71
2021/09/19 05:33:15;;;;;;;9.88;7.30;;;;;;;21.64;67.93;100341.84;5114658;28;20129;-72
2021/09/19 05:36:00;;;;;;;11.48;7.43;;;;;;;21.58;68.11;100348.19;5120066;28;20050;-71
2021/09/19 05:38:45;;;;;;;9.35;6.68;;;;;;;21.49;68.09;100350.56;5114374;28;20054;-71
2021/09/19 05:41:32;;;;;;;9.32;7.25;;;;;;;21.39;69.27;100362.44;5119852;28;20042;-71
2021/09/19 05:44:17;;;;;;;7.97;6.43;;;;;;;21.34;69.41;100369.94;5119971;28;20054;-71
2021/09/19 05:47:03;;;;;;;9.52;6.95;;;;;;;21.39;69.23;100359.66;5118916;28;20054;-70
2021/09/19 05:52:52;;;;;;;11.15;6.50;;;;;;;21.57;68.07;100363.22;5119256;28;20054;-71
2021/09/19 05:55:55;;;;;;;8.63;6.50;;;;;;;21.53;67.79;100359.66;5112895;28;20050;-71
2021/09/19 05:58:40;;;;;;;10.60;7.53;;;;;;;21.32;68.49;100369.56;5114184;28;20054;-71
2021/09/19 06:01:25;;;;;;;9.65;7.15;;;;;;;21.29;69.27;100359.28;5119581;28;20046;-71
2021/09/19 06:04:28;;;;;;;9.02;6.93;;;;;;;21.30;69.48;100358.09;5119541;28;20043;-71
2021/09/19 06:07:13;;;;;;;11.13;6.93;;;;;;;21.37;68.67;100353.75;5118487;28;20055;-71
2021/09/19 06:09:58;;;;;;;12.65;7.63;;;;;;;21.40;68.88;100347.41;5119426;28;20039;-71
2021/09/19 06:13:03;;;;;;;12.40;6.82;;;;;;;21.31;68.87;100354.16;5119454;28;20050;-70
2021/09/19 06:15:47;;;;;;;13.70;7.72;;;;;;;21.40;68.82;100347.41;5121643;28;20042;-71
2021/09/19 06:18:34;;;;;;;13.25;7.72;;;;;;;21.32;69.27;100335.59;5118816;28;20411;-71
2021/09/19 06:21:18;;;;;;;13.30;8.07;;;;;;;21.27;69.72;100349.81;5123682;28;20047;-71
2021/09/19 06:24:04;;;;;;;12.05;8.85;;;;;;;21.23;69.41;100349.78;5123668;28;20055;-71
2021/09/19 06:26:48;;;;;;;12.95;6.88;;;;;;;21.10;70.13;100345.84;5123535;28;20047;-71
2021/09/19 06:29:34;;;;;;;30.70;9.13;;;;;;;21.10;70.48;100347.81;5123779;28;20054;-71
2021/09/19 06:32:18;;;;;;;9.48;6.82;;;;;;;21.12;70.23;100343.47;5121135;28;20042;-71
2021/09/19 06:35:05;;;;;;;13.18;7.70;;;;;;;21.15;69.75;100337.16;5123355;28;20054;-71
2021/09/19 06:37:51;;;;;;;18.38;8.43;;;;;;;21.11;69.87;100341.88;5120320;28;20514;-71
2021/09/19 06:40:54;;;;;;;11.15;7.07;;;;;;;21.20;69.96;100344.28;5116478;28;20411;-71
2021/09/19 06:43:39;;;;;;;9.23;7.13;;;;;;;21.20;69.45;100352.56;5107260;28;20047;-71
2021/09/19 06:46:27;;;;;;;15.65;8.15;;;;;;;21.22;69.75;100348.25;5123522;28;20055;-71
2021/09/19 06:49:12;;;;;;;11.95;8.15;;;;;;;21.25;69.22;100346.66;5116231;28;20046;-71
2021/09/19 06:51:56;;;;;;;15.70;7.53;;;;;;;21.21;69.22;100349.41;5123009;28;20054;-71
2021/09/19 06:54:43;;;;;;;9.65;7.22;;;;;;;21.12;69.72;100342.69;5123249;28;20054;-71
2021/09/19 06:57:28;;;;;;;11.73;7.72;;;;;;;21.11;69.80;100336.34;5121033;28;20097;-70
2021/09/19 07:00:32;;;;;;;10.60;7.10;;;;;;;21.18;69.63;100354.97;5122926;28;20085;-71
2021/09/19 07:03:16;;;;;;;10.52;7.50;;;;;;;21.22;69.70;100348.25;5122771;28;20050;-71
2021/09/19 07:06:02;;;;;;;10.35;6.95;;;;;;;21.29;69.30;100344.66;5122788;28;20047;-71
2021/09/19 07:09:06;;;;;;;13.68;7.22;;;;;;;21.36;69.37;100346.63;5115921;28;20055;-71
2021/09/19 07:11:51;;;;;;;11.35;7.40;;;;;;;21.41;68.61;100330.44;5122635;28;20043;-71
2021/09/19 07:14:36;;;;;;;9.23;5.40;;;;;;;21.63;68.66;100331.97;5122522;28;20411;-70
2021/09/19 07:17:20;;;;;;;8.27;6.25;;;;;;;21.63;67.96;100326.44;5120950;28;20039;-71
2021/09/19 07:20:24;;;;;;;9.10;5.50;;;;;;;21.80;67.37;100318.47;5122861;28;20068;-70
2021/09/19 07:23:10;;;;;;;13.30;6.82;;;;;;;21.86;66.42;100320.41;5122380;28;20047;-71
2021/09/19 07:25:55;;;;;;;12.55;5.95;;;;;;;21.86;66.97;100322.41;5121549;28;20407;-70
2021/09/19 07:29:00;;;;;;;8.10;5.68;;;;;;;21.87;66.81;100316.47;5095169;28;20518;-71
2021/09/19 07:31:47;;;;;;;7.47;4.90;;;;;;;21.85;66.99;100312.50;5100901;28;20416;-70
2021/09/19 07:34:36;;;;;;;6.25;4.30;;;;;;;21.98;66.44;100314.47;5101732;28;20074;-70
2021/09/19 07:37:22;;;;;;;7.43;4.40;;;;;;;22.23;65.83;100321.88;5100185;28;20047;-71
2021/09/19 07:40:07;;;;;;;8.75;4.95;;;;;;;22.73;64.49;100314.88;5101253;28;20055;-63
2021/09/19 07:42:52;;;;;;;12.32;4.90;;;;;;;23.15;62.77;100324.03;5101613;28;20055;-63
2021/09/19 07:45:37;;;;;;;11.02;4.57;;;;;;;23.58;61.34;100314.09;5097968;28;20039;-63
2021/09/19 07:48:23;;;;;;;6.25;4.65;;;;;;;23.85;60.74;100320.56;5128749;27;20054;-62
2021/09/19 07:51:08;;;;;;;7.00;4.40;;;;;;;24.00;59.69;100323.94;5119799;27;20055;-63
2021/09/19 07:53:54;;;;;;;6.70;4.07;;;;;;;24.09;59.65;100331.75;5125335;27;20054;-63
2021/09/19 07:56:38;;;;;;;5.85;3.78;;;;;;;23.95;59.02;100329.97;5128065;27;20038;-63
2021/09/19 07:59:24;;;;;;;14.13;4.38;;;;;;;23.95;59.43;100337.50;5141386;27;20046;-63
2021/09/19 08:02:09;;;;;;;5.88;3.47;;;;;;;23.72;59.66;100344.50;5141519;27;20092;-63
2021/09/19 08:05:13;;;;;;;5.80;3.30;;;;;;;23.34;60.52;100337.34;5107696;27;20063;-64
2021/09/19 08:07:58;;;;;;;5.47;2.88;;;;;;;23.59;58.64;100346.22;5106097;27;20042;-63
2021/09/19 08:10:43;;;;;;;4.03;3.30;;;;;;;23.35;59.97;100345.25;5127203;27;20211;-64
2021/09/19 08:13:47;;;;;;;3.90;2.58;;;;;;;23.54;59.16;100346.69;5119526;27;20071;-64
2021/09/19 08:16:34;;;;;;;4.13;3.13;;;;;;;23.46;59.55;100347.97;5122010;27;20399;-64
2021/09/19 08:19:21;;;;;;;5.50;3.05;;;;;;;23.13;60.77;100343.84;5119919;27;20043;-67
2021/09/19 08:22:06;;;;;;;7.53;3.30;;;;;;;23.44;59.79;100345.56;5118009;27;20987;-67
2021/09/19 08:24:51;;;;;;;4.00;2.20;;;;;;;23.54;59.52;100357.78;5116305;27;20051;-67
2021/09/19 08:27:37;;;;;;;3.40;2.70;;;;;;;23.27;58.81;100362.34;5120293;27;20050;-66
2021/09/19 08:30:40;;;;;;;7.28;2.85;;;;;;;23.18;59.80;100357.28;5114362;28;20038;-66
2021/09/19 08:33:27;;;;;;;3.95;2.35;;;;;;;23.12;59.66;100356.16;5119576;27;20061;-67
2021/09/19 08:36:12;;;;;;;5.13;2.55;;;;;;;23.03;59.21;100347.50;5116838;28;20051;-67
2021/09/19 08:38:57;;;;;;;6.90;2.50;;;;;;;23.28;58.54;100334.22;5116523;27;20042;-67
2021/09/19 08:41:43;;;;;;;2.47;2.20;;;;;;;23.46;57.75;100331.31;5119521;27;20035;-66
2021/09/19 08:44:28;;;;;;;2.72;1.75;;;;;;;23.31;57.92;100341.72;5117505;27;20039;-67
2021/09/19 08:47:13;;;;;;;2.53;2.10;;;;;;;23.21;57.84;100341.81;5113305;28;20399;-67
2021/09/19 08:49:58;;;;;;;3.67;2.10;;;;;;;23.11;57.69;100343.47;5116841;27;20415;-67
2021/09/19 08:52:45;;;;;;;3.72;1.60;;;;;;;23.20;58.04;100351.34;5109913;27;20415;-66
2021/09/19 08:55:30;;;;;;;3.00;1.88;;;;;;;23.08;58.29;100349.06;5122775;27;20050;-67
2021/09/19 08:58:14;;;;;;;3.95;2.33;;;;;;;22.75;59.21;100362.38;5115064;28;20043;-66
2021/09/19 09:01:01;;;;;;;3.95;1.85;;;;;;;22.75;58.95;100365.16;5109254;27;20066;-66
2021/09/19 09:03:46;;;;;;;2.65;1.60;;;;;;;22.92;58.00;100353.13;5118878;27;20055;-67
2021/09/19 09:06:40;;;;;;;4.90;1.65;;;;;;;22.86;57.62;100353.97;5114723;27;20053;-66
2021/09/19 09:09:24;;;;;;;2.95;1.70;;;;;;;22.74;56.99;100351.69;5110775;27;20512;-67
2021/09/19 09:12:12;;;;;;;8.50;1.63;;;;;;;22.70;57.02;100356.44;5109326;27;20410;-66
2021/09/19 09:14:58;;;;;;;2.88;1.80;;;;;;;22.48;56.59;100358.56;5110671;27;20050;-67
2021/09/19 09:17:42;;;;;;;1.65;1.45;;;;;;;22.35;57.33;100377.59;5115732;28;20050;-67
2021/09/19 09:20:45;;;;;;;7.00;1.38;;;;;;;22.17;59.00;100397.09;5124136;27;20062;-68
2021/09/19 09:23:43;;;;;;;8.35;1.58;;;;;;;21.59;64.21;100400.34;5111481;27;20042;-67
2021/09/19 09:26:37;;;;;;;30.02;3.22;;;;;;;20.90;72.33;100397.16;5117098;27;20387;-66
2021/09/19 09:41:43;;;;;;;9.38;3.08;;;;;;;21.11;81.23;100391.66;5120038;28;20383;-60
2021/09/19 09:44:27;;;;;;;8.18;3.00;;;;;;;21.17;80.85;100390.13;5119811;28;20054;-60
2021/09/19 09:47:18;;;;;;;11.43;2.58;;;;;;;21.25;76.48;100391.69;5112965;28;20054;-66
2021/09/19 09:50:04;;;;;;;7.57;2.90;;;;;;;21.81;74.89;100400.31;5099871;28;20509;-64
2021/09/19 09:52:48;;;;;;;7.68;2.63;;;;;;;21.97;71.34;100390.44;5117831;27;20050;-64
2021/09/19 09:55:34;;;;;;;5.00;2.50;;;;;;;21.70;70.23;100387.28;5113921;27;20046;-62
2021/09/19 09:58:21;;;;;;;3.28;2.83;;;;;;;20.72;73.13;100383.31;5114269;28;20518;-63
2021/09/19 10:01:06;;;;;;;6.32;2.47;;;;;;;20.61;73.07;100370.66;5111996;27;20038;-62
2021/09/19 10:03:51;;;;;;;5.07;2.75;;;;;;;20.44;72.17;100364.69;5111975;28;20407;-66
2021/09/19 10:06:37;;;;;;;8.07;3.28;;;;;;;19.94;79.25;100360.91;5111544;28;20058;-65
2021/09/19 10:09:23;;;;;;;4.53;3.83;;;;;;;19.78;79.98;100343.09;5109879;28;20066;-66
2021/09/19 10:12:09;;;;;;;8.05;3.33;;;;;;;19.76;81.96;100350.97;5110421;28;20039;-65
2021/09/19 10:14:54;;;;;;;15.02;3.63;;;;;;;-144.51;100.00;69251.94;5111262;28;20050;-65
2021/09/19 10:17:39;;;;;;;16.70;4.13;;;;;;;-144.51;100.00;69251.94;5111718;28;20040;-65
2021/09/19 10:20:30;;;;;;;7.35;3.80;;;;;;;-144.51;100.00;69251.94;5109761;28;20495;-66
2021/09/19 10:23:28;;;;;;;9.40;3.55;;;;;;;-144.51;100.00;69251.94;5111776;28;20043;-65
2021/09/19 10:26:21;;;;;;;6.97;3.17;;;;;;;-144.51;100.00;69251.94;5112181;28;20403;-66
2021/09/19 10:29:06;;;;;;;6.25;2.83;;;;;;;-144.51;100.00;69251.94;5104983;28;20028;-65
2021/09/19 10:31:50;;;;;;;5.07;2.22;;;;;;;-144.51;100.00;69251.94;5110556;28;20039;-65
2021/09/19 10:34:37;;;;;;;8.55;2.60;;;;;;;-144.51;100.00;69251.94;5109307;28;20039;-65
2021/09/19 10:37:47;;;;;;;8.40;2.58;;;;;;;-144.51;100.00;69251.94;5111849;28;20495;-65
2021/09/19 10:40:42;;;;;;;3.58;2.10;;;;;;;-144.51;100.00;69251.94;5112613;28;20031;-66
2021/09/19 10:43:27;;;;;;;4.20;2.20;;;;;;;-144.51;100.00;69251.94;5108880;28;20403;-66
2021/09/19 10:46:34;;;;;;;4.80;2.28;;;;;;;-144.51;100.00;69251.94;5110521;28;20035;-66
2021/09/19 10:49:20;;;;;;;5.32;2.05;;;;;;;-144.51;100.00;69251.94;5111789;28;20047;-65
2021/09/19 10:52:04;;;;;;;5.10;2.00;;;;;;;-144.51;100.00;69251.94;5111643;28;20031;-66
2021/09/19 10:54:52;;;;;;;4.85;2.70;;;;;;;-144.51;100.00;69251.94;5112524;28;20056;-66
2021/09/19 10:57:37;;;;;;;3.90;2.25;;;;;;;-144.51;100.00;69251.94;5112920;28;20406;-66
2021/09/19 11:00:23;;;;;;;3.20;2.15;;;;;;;-144.51;100.00;69251.94;5111737;28;20039;-65
2021/09/19 11:03:14;;;;;;;7.05;2.05;;;;;;;-144.51;100.00;69251.94;5114625;28;20039;-65
2021/09/19 11:05:58;;;;;;;4.15;2.13;;;;;;;-144.51;100.00;69251.94;5120113;28;20043;-66
2021/09/19 11:08:43;;;;;;;4.40;1.77;;;;;;;-144.51;100.00;69251.94;5116437;28;20039;-66
2021/09/19 11:11:29;;;;;;;2.80;1.80;;;;;;;-144.51;100.00;69251.94;5113933;28;20039;-65
2021/09/19 11:14:14;;;;;;;3.25;2.40;;;;;;;-144.51;100.00;69251.94;5114453;28;20036;-65
2021/09/19 11:17:22;;;;;;;5.60;2.72;;;;;;;-144.51;100.00;69251.94;5115795;28;20039;-65
2021/09/19 11:20:10;;;;;;;3.28;2.00;;;;;;;-144.51;100.00;69251.94;5114705;28;20040;-66
2021/09/19 11:23:16;;;;;;;4.47;2.13;;;;;;;-144.51;100.00;69251.94;5115163;28;20044;-66
2021/09/19 11:26:01;;;;;;;6.03;2.05;;;;;;;-144.51;100.00;69251.94;5114528;28;20039;-66
2021/09/19 11:28:47;;;;;;;6.15;1.45;;;;;;;-144.51;100.00;69251.94;5115447;28;20031;-66
2021/09/19 11:31:33;;;;;;;4.18;1.90;;;;;;;-144.51;100.00;69251.94;5119173;28;20036;-66
2021/09/19 11:34:20;;;;;;;2.70;1.55;;;;;;;-144.51;100.00;69251.94;5114028;28;20433;-66
2021/09/19 11:37:07;;;;;;;3.63;1.70;;;;;;;-144.51;100.00;69251.94;5116502;28;20036;-66
2021/09/19 11:39:52;;;;;;;1.98;1.10;;;;;;;-144.51;100.00;69251.94;5112428;28;20044;-66
2021/09/19 11:42:38;;;;;;;3.13;1.67;;;;;;;-144.51;100.00;69251.94;5114725;28;20471;-67
2021/09/19 11:45:22;;;;;;;2.45;1.27;;;;;;;-144.51;100.00;69251.94;5115256;28;20492;-66
2021/09/19 11:48:07;;;;;;;5.03;1.33;;;;;;;-144.51;100.00;69251.94;5115440;28;20039;-65
2021/09/19 11:50:52;;;;;;;3.28;1.20;;;;;;;-144.51;100.00;69251.94;5112570;28;20039;-65
2021/09/19 11:53:37;;;;;;;4.55;1.30;;;;;;;-144.51;100.00;69251.94;5116212;28;20039;-65
2021/09/19 11:56:24;;;;;;;2.30;1.38;;;;;;;-144.51;100.00;69251.94;5114297;28;20032;-65
2021/09/19 11:59:15;;;;;;;1.90;1.35;;;;;;;-144.51;100.00;69251.94;5112309;28;20039;-65
2021/09/19 12:02:02;;;;;;;9.20;2.10;;;;;;;-144.51;100.00;69251.94;5114282;28;20035;-66
2021/09/19 12:04:48;;;;;;;1.73;1.35;;;;;;;-144.51;100.00;69251.94;5115058;28;20040;-65
2021/09/19 12:07:32;;;;;;;2.80;2.25;;;;;;;-144.51;100.00;69251.94;5114260;28;20035;-64
2021/09/19 12:10:23;;;;;;;6.00;1.80;;;;;;;-144.51;100.00;69251.94;5114204;28;20040;-66
2021/09/19 12:13:22;;;;;;;3.25;1.17;;;;;;;-144.51;100.00;69251.94;5113174;28;20040;-66
2021/09/19 12:16:16;;;;;;;2.83;1.65;;;;;;;-144.51;100.00;69251.94;5109818;28;20040;-65
2021/09/19 12:19:01;;;;;;;2.93;1.67;;;;;;;-144.51;100.00;69251.94;5113608;28;20040;-66
2021/09/19 12:22:17;;;;;;;3.10;1.63;;;;;;;-144.51;100.00;69251.94;5113984;28;20039;-66
2021/09/19 12:25:06;;;;;;;4.35;1.58;;;;;;;-144.51;100.00;69251.94;5115330;28;20039;-67
2021/09/19 12:27:50;;;;;;;2.53;1.40;;;;;;;-144.51;100.00;69251.94;5113958;28;20035;-65
2021/09/19 12:30:40;;;;;;;2.22;1.38;;;;;;;-144.51;100.00;69251.94;5109159;28;20036;-66
2021/09/19 12:33:26;;;;;;;3.17;1.42;;;;;;;-144.51;100.00;69251.94;5112947;28;21029;-65
2021/09/19 12:36:11;;;;;;;2.13;1.27;;;;;;;-144.51;100.00;69251.94;5108168;28;20035;-65
2021/09/19 12:38:58;;;;;;;3.42;1.13;;;;;;;-144.51;100.00;69251.94;5112029;28;20047;-65
2021/09/19 12:41:45;;;;;;;4.40;1.15;;;;;;;-144.51;100.00;69251.94;5112357;28;20048;-65
2021/09/19 12:44:32;;;;;;;1.42;0.88;;;;;;;-144.51;100.00;69251.94;5113526;28;20044;-65
2021/09/19 12:47:19;;;;;;;4.03;1.23;;;;;;;-144.51;100.00;69251.94;5111537;28;20031;-65
2021/09/19 12:50:10;;;;;;;7.13;1.38;;;;;;;-144.51;100.00;69251.94;5112523;28;20491;-65
2021/09/19 12:52:57;;;;;;;2.83;0.95;;;;;;;-144.51;100.00;69251.94;5113148;28;20031;-64
2021/09/19 12:55:42;;;;;;;1.75;1.20;;;;;;;-144.51;100.00;69251.94;5112073;28;20241;-65
2021/09/19 12:58:27;;;;;;;2.40;1.30;;;;;;;-144.51;100.00;69251.94;5112364;28;20043;-65
2021/09/19 13:01:13;;;;;;;2.90;1.42;;;;;;;-144.51;100.00;69251.94;5113378;28;20035;-64
2021/09/19 13:03:57;;;;;;;3.95;1.50;;;;;;;-144.51;100.00;69251.94;5111002;28;20035;-64
2021/09/19 13:06:42;;;;;;;1.88;0.82;;;;;;;-144.51;100.00;69251.94;5111496;28;20487;-65
2021/09/19 13:09:27;;;;;;;4.72;1.45;;;;;;;-144.51;100.00;69251.94;5112358;28;20235;-65
2021/09/19 13:12:13;;;;;;;2.53;1.23;;;;;;;-144.51;100.00;69251.94;5105473;28;20032;-66
2021/09/19 13:14:57;;;;;;;4.88;1.60;;;;;;;-144.51;100.00;69251.94;5110786;28;20035;-66
2021/09/19 13:17:42;;;;;;;3.33;1.30;;;;;;;-144.51;100.00;69251.94;5110820;28;20040;-66
2021/09/19 13:20:27;;;;;;;3.38;1.88;;;;;;;-144.51;100.00;69251.94;5108561;28;20047;-65
2021/09/19 13:23:12;;;;;;;2.13;1.50;;;;;;;-144.51;100.00;69251.94;5110663;28;20035;-66
2021/09/19 13:25:57;;;;;;;6.07;2.45;;;;;;;-144.51;100.00;69251.94;5111605;28;20043;-66
2021/09/19 13:28:42;;;;;;;3.20;1.90;;;;;;;-144.51;100.00;69251.94;5106238;28;20499;-65